| time (UTC) | temp F | wind direction | speed knots | gust knots | rain 1hr in | rain 24hr in | rain mn in | humidity % | barometer mb |
| 20260906204515 | 84 | 121 | 0.9 | 2.6 | 0.00 | 0.00 | 0.00 | 65 | 1016.6 |
| 20260906203531 | 82 | 119 | 1.7 | 2.6 | 0.00 | 0.00 | 0.00 | 68 | 1016.4 |
| 20260906202518 | 82 | 153 | 2.6 | 4.3 | 0.00 | 0.00 | 0.00 | 68 | 1016.3 |
| 20260906201521 | 82 | 153 | 2.6 | 4.3 | 0.00 | 0.00 | 0.00 | 68 | 1016.1 |
| 20260906200525 | 81 | 135 | 2.6 | 4.3 | 0.00 | 0.00 | 0.00 | 69 | 1016.1 |
| 20260906195549 | 82 | 129 | 1.7 | 3.5 | 0.00 | 0.00 | 0.00 | 68 | 1016.1 |
| 20260906194515 | 82 | 126 | 1.7 | 2.6 | 0.00 | 0.00 | 0.00 | 70 | 1016.1 |
| 20260906193519 | 82 | 125 | 1.7 | 2.6 | 0.00 | 0.00 | 0.00 | 69 | 1016.1 |
| 20260906192523 | 81 | 148 | 2.6 | 3.5 | 0.00 | 0.00 | 0.00 | 69 | 1016.2 |
| 20260906191527 | 87 | 117 | 2.6 | 4.3 | 0.00 | 0.00 | 0.00 | 62 | 1016.3 |
| 20260906190531 | 87 | 126 | 2.6 | 4.3 | 0.00 | 0.00 | 0.00 | 61 | 1016.4 |
| 20260906185517 | 89 | 125 | 2.6 | 4.3 | 0.00 | 0.00 | 0.00 | 59 | 1016.6 |
| 20260906184521 | 88 | 116 | 2.6 | 3.5 | 0.00 | 0.00 | 0.00 | 60 | 1016.8 |
| 20260906183526 | 90 | 82 | 2.6 | 4.3 | 0.00 | 0.00 | 0.00 | 57 | 1017.1 |
| 20260906182529 | 89 | 122 | 1.7 | 2.6 | 0.00 | 0.00 | 0.00 | 59 | 1017.2 |
| 20260906181553 | 87 | 125 | 2.6 | 4.3 | 0.00 | 0.00 | 0.00 | 60 | 1017.4 |
| 20260906180519 | 87 | 136 | 2.6 | 3.5 | 0.00 | 0.00 | 0.00 | 60 | 1017.6 |
| 20260906175524 | 88 | 120 | 2.6 | 4.3 | 0.00 | 0.00 | 0.00 | 58 | 1017.5 |
| 20260906174527 | 87 | 127 | 1.7 | 3.5 | 0.00 | 0.00 | 0.00 | 60 | 1017.6 |
| 20260906173551 | 85 | 169 | 2.6 | 3.5 | 0.00 | 0.00 | 0.00 | 61 | 1017.9 |
| 20260906172516 | 87 | 120 | 2.6 | 4.3 | 0.00 | 0.00 | 0.00 | 60 | 1017.9 |
| 20260906171520 | 84 | 152 | 2.6 | 3.5 | 0.00 | 0.00 | 0.00 | 62 | 1018.0 |
| 20260906170524 | 87 | 46 | 1.7 | 2.6 | 0.00 | 0.00 | 0.00 | 61 | 1018.1 |
| 20260906165528 | 86 | 115 | 2.6 | 4.3 | 0.00 | 0.00 | 0.00 | 61 | 1018.2 |
| 20260906164527 | 86 | 98 | 1.7 | 4.3 | 0.00 | 0.00 | 0.00 | 61 | 1018.2 |
| 20260906163518 | 84 | 162 | 2.6 | 3.5 | 0.00 | 0.00 | 0.00 | 63 | 1018.4 |
| 20260906162522 | 84 | 118 | 1.7 | 3.5 | 0.00 | 0.00 | 0.00 | 63 | 1018.4 |
| 20260906161541 | 82 | 166 | 2.6 | 3.5 | 0.00 | 0.00 | 0.00 | 64 | 1018.4 |
| 20260906160558 | 83 | 130 | 1.7 | 3.5 | 0.00 | 0.00 | 0.00 | 64 | 1018.5 |
| 20260906155516 | 83 | 137 | 1.7 | 2.6 | 0.00 | 0.00 | 0.00 | 63 | 1018.3 |
| 20260906154541 | 82 | 127 | 1.7 | 2.6 | 0.00 | 0.00 | 0.00 | 65 | 1018.2 |
| 20260906153524 | 81 | 118 | 2.6 | 3.5 | 0.00 | 0.00 | 0.00 | 65 | 1018.3 |
| 20260906152528 | 81 | 111 | 1.7 | 3.5 | 0.00 | 0.00 | 0.00 | 66 | 1018.3 |
| 20260906151532 | 80 | 104 | 1.7 | 3.5 | 0.00 | 0.00 | 0.00 | 68 | 1018.3 |
| 20260906150517 | 79 | 103 | 1.7 | 2.6 | 0.00 | 0.00 | 0.00 | 69 | 1018.4 |
| 20260906145522 | 76 | 103 | 0.9 | 2.6 | 0.00 | 0.00 | 0.00 | 73 | 1018.4 |
| 20260906144526 | 76 | 82 | 0.9 | 2.6 | 0.00 | 0.00 | 0.00 | 74 | 1018.5 |
| 20260906143529 | 74 | 66 | 0.9 | 1.7 | 0.00 | 0.00 | 0.00 | 77 | 1018.3 |
| 20260906142516 | 72 | 45 | 0.0 | 1.7 | 0.00 | 0.00 | 0.00 | 82 | 1018.3 |
| 20260906141520 | 68 | 113 | 0.9 | 1.7 | 0.00 | 0.00 | 0.00 | 89 | 1018.4 |
| 20260906140524 | 65 | 0.0 | 0.0 | 0.00 | 0.00 | 0.00 | 93 | 1018.4 | |
| 20260906135528 | 64 | 0.0 | 0.0 | 0.00 | 0.00 | 0.00 | 95 | 1018.7 | |
| 20260906134531 | 64 | 0.0 | 0.0 | 0.00 | 0.00 | 0.00 | 95 | 1018.8 | |
| 20260906133518 | 63 | 0.0 | 0.0 | 0.00 | 0.00 | 0.00 | 95 | 1018.8 | |
| 20260906132521 | 63 | 0.0 | 0.0 | 0.00 | 0.00 | 0.00 | 95 | 1018.7 | |
| 20260906131526 | 63 | 0.0 | 0.0 | 0.00 | 0.00 | 0.00 | 95 | 1018.7 | |
| 20260906130529 | 62 | 0.0 | 0.0 | 0.00 | 0.00 | 0.00 | 95 | 1018.6 | |
| 20260906125515 | 61 | 0.0 | 0.0 | 0.00 | 0.00 | 0.00 | 95 | 1018.7 | |
| 20260906124540 | 59 | 0.0 | 0.0 | 0.00 | 0.00 | 0.00 | 95 | 1018.6 | |
| 20260906123524 | 58 | 0.0 | 0.0 | 0.00 | 0.00 | 0.00 | 96 | 1018.6 | |
| 20260906122527 | 58 | 0.0 | 0.0 | 0.00 | 0.00 | 0.00 | 96 | 1018.7 | |
| 20260906121532 | 58 | 0.0 | 0.0 | 0.00 | 0.00 | 0.00 | 96 | 1018.7 | |
| 20260906120517 | 58 | 0.0 | 0.0 | 0.00 | 0.00 | 0.00 | 96 | 1018.7 | |
| 20260906115521 | 58 | 0.0 | 0.0 | 0.00 | 0.00 | 0.00 | 96 | 1018.5 | |
| 20260906114525 | 59 | 0.0 | 0.0 | 0.00 | 0.00 | 0.00 | 96 | 1018.5 | |
| 20260906113523 | 59 | 0.0 | 0.0 | 0.00 | 0.00 | 0.00 | 96 | 1018.5 | |
| 20260906112515 | 59 | 0.0 | 0.0 | 0.00 | 0.00 | 0.00 | 96 | 1018.4 | |
| 20260906111519 | 59 | 0.0 | 0.0 | 0.00 | 0.00 | 0.00 | 96 | 1018.3 | |
| 20260906110517 | 59 | 0.0 | 0.0 | 0.00 | 0.00 | 0.00 | 96 | 1018.2 | |
| 20260906105515 | 60 | 0.0 | 0.0 | 0.00 | 0.00 | 0.00 | 96 | 1018.0 | |
| 20260906104531 | 60 | 0.0 | 0.0 | 0.00 | 0.00 | 0.00 | 96 | 1017.8 | |
| 20260906103517 | 60 | 0.0 | 0.0 | 0.00 | 0.00 | 0.00 | 96 | 1017.9 | |
| 20260906102521 | 60 | 0.0 | 0.0 | 0.00 | 0.00 | 0.00 | 96 | 1017.8 | |
| 20260906101525 | 60 | 0.0 | 0.0 | 0.00 | 0.00 | 0.00 | 96 | 1017.8 | |
| 20260906100529 | 60 | 0.0 | 0.0 | 0.00 | 0.00 | 0.00 | 96 | 1017.8 | |
| 20260906095553 | 60 | 0.0 | 0.0 | 0.00 | 0.00 | 0.00 | 96 | 1017.7 | |
| 20260906094519 | 60 | 0.0 | 0.0 | 0.00 | 0.00 | 0.00 | 96 | 1017.7 | |
| 20260906093523 | 61 | 0.0 | 0.0 | 0.00 | 0.00 | 0.00 | 96 | 1017.6 | |
| 20260906092527 | 61 | 0.0 | 0.0 | 0.00 | 0.00 | 0.00 | 96 | 1017.6 | |
| 20260906091531 | 61 | 0.0 | 0.0 | 0.00 | 0.00 | 0.00 | 96 | 1017.7 | |
| 20260906090516 | 62 | 0.0 | 0.0 | 0.00 | 0.00 | 0.00 | 96 | 1017.6 | |
| 20260906085521 | 62 | 0.0 | 0.0 | 0.00 | 0.00 | 0.00 | 95 | 1017.7 | |
| 20260906084525 | 62 | 0.0 | 0.0 | 0.00 | 0.00 | 0.00 | 95 | 1017.7 | |
| 20260906083528 | 62 | 0.0 | 0.0 | 0.00 | 0.00 | 0.00 | 95 | 1017.5 | |
| 20260906082532 | 62 | 0.0 | 0.0 | 0.00 | 0.00 | 0.00 | 95 | 1017.6 | |
| 20260906081538 | 61 | 143 | 0.0 | 1.7 | 0.00 | 0.00 | 0.00 | 95 | 1017.7 |
| 20260906080522 | 61 | 145 | 0.9 | 1.7 | 0.00 | 0.00 | 0.00 | 95 | 1017.8 |
| 20260906075527 | 60 | 0.0 | 0.0 | 0.00 | 0.00 | 0.00 | 94 | 1017.8 | |
| 20260906074530 | 61 | 0.0 | 0.0 | 0.00 | 0.00 | 0.00 | 94 | 1017.8 | |
| 20260906073516 | 59 | 0.0 | 0.0 | 0.00 | 0.00 | 0.00 | 93 | 1017.7 | |
| 20260906072520 | 60 | 0.0 | 0.0 | 0.00 | 0.00 | 0.00 | 93 | 1017.7 | |
| 20260906071524 | 60 | 0.0 | 0.0 | 0.00 | 0.00 | 0.00 | 93 | 1017.8 | |
| 20260906070528 | 60 | 0.0 | 0.0 | 0.00 | 0.00 | 0.00 | 93 | 1017.9 | |
| 20260906065546 | 61 | 0.0 | 0.0 | 0.00 | 0.00 | 0.00 | 93 | 1017.9 | |
| 20260906064518 | 61 | 0.0 | 0.0 | 0.00 | 0.00 | 0.00 | 93 | 1017.9 | |
| 20260906063522 | 61 | 0.0 | 0.0 | 0.00 | 0.00 | 0.00 | 93 | 1018.0 | |
| 20260906062520 | 62 | 0.0 | 0.0 | 0.00 | 0.00 | 0.00 | 92 | 1017.9 | |
| 20260906061518 | 62 | 0.0 | 0.0 | 0.00 | 0.00 | 0.00 | 91 | 1017.8 | |
| 20260906060556 | 62 | 0.0 | 0.0 | 0.00 | 0.00 | 0.00 | 91 | 1017.8 | |
| 20260906055520 | 62 | 0.0 | 0.0 | 0.00 | 0.00 | 0.00 | 91 | 1017.9 | |
| 20260906054524 | 63 | 0.0 | 0.0 | 0.00 | 0.00 | 0.00 | 91 | 1017.9 | |
| 20260906053528 | 63 | 0.0 | 0.0 | 0.00 | 0.00 | 0.00 | 91 | 1017.8 | |
| 20260906052532 | 64 | 0.0 | 0.0 | 0.00 | 0.00 | 0.00 | 90 | 1017.8 | |
| 20260906051518 | 64 | 180 | 0.0 | 1.7 | 0.00 | 0.00 | 0.00 | 90 | 1017.8 |
| 20260906050602 | 65 | 179 | 0.9 | 2.6 | 0.00 | 0.00 | 0.00 | 90 | 1017.8 |
| 20260906045545 | 65 | 176 | 0.0 | 1.7 | 0.00 | 0.00 | 0.00 | 90 | 1017.8 |
| 20260906044529 | 65 | 158 | 0.0 | 1.7 | 0.00 | 0.00 | 0.00 | 89 | 1017.6 |
| 20260906043515 | 65 | 0.0 | 0.0 | 0.00 | 0.00 | 0.00 | 89 | 1017.6 | |
| 20260906042519 | 66 | 167 | 1.7 | 2.6 | 0.00 | 0.00 | 0.00 | 89 | 1017.6 |
| 20260906041523 | 65 | 0.0 | 0.0 | 0.00 | 0.00 | 0.00 | 89 | 1017.6 | |
| 20260906040527 | 65 | 0.0 | 0.0 | 0.00 | 0.00 | 0.00 | 89 | 1017.5 | |
| 20260906035532 | 65 | 0.0 | 0.0 | 0.00 | 0.00 | 0.00 | 89 | 1017.6 | |
| 20260906034517 | 65 | 0.0 | 0.0 | 0.00 | 0.00 | 0.00 | 88 | 1017.5 | |
| 20260906033541 | 66 | 0.0 | 0.0 | 0.00 | 0.00 | 0.00 | 88 | 1017.5 | |
| 20260906032525 | 66 | 0.0 | 0.0 | 0.00 | 0.00 | 0.00 | 87 | 1017.5 | |
| 20260906031529 | 67 | 0.0 | 0.0 | 0.00 | 0.00 | 0.00 | 87 | 1017.6 | |
| 20260906030515 | 67 | 0.0 | 0.0 | 0.00 | 0.00 | 0.00 | 88 | 1017.6 | |
| 20260906025519 | 67 | 0.0 | 0.0 | 0.00 | 0.00 | 0.00 | 88 | 1017.8 | |
| 20260906024523 | 66 | 0.0 | 0.0 | 0.00 | 0.00 | 0.00 | 88 | 1017.8 | |
| 20260906023527 | 67 | 0.0 | 0.0 | 0.00 | 0.00 | 0.00 | 88 | 1017.8 | |
| 20260906022531 | 67 | 0.0 | 0.0 | 0.00 | 0.00 | 0.00 | 87 | 1017.9 | |
| 20260906021516 | 68 | 0.0 | 0.0 | 0.00 | 0.00 | 0.00 | 86 | 1017.9 | |
| 20260906020520 | 68 | 0.0 | 0.0 | 0.00 | 0.00 | 0.00 | 86 | 1017.8 | |
| 20260906015525 | 68 | 0.0 | 0.0 | 0.00 | 0.00 | 0.00 | 85 | 1017.6 | |
| 20260906014524 | 69 | 0.0 | 0.0 | 0.00 | 0.00 | 0.00 | 84 | 1017.6 | |
| 20260906013520 | 70 | 0.0 | 0.0 | 0.00 | 0.00 | 0.00 | 82 | 1017.3 | |
| 20260906012519 | 71 | 0.0 | 0.0 | 0.00 | 0.00 | 0.00 | 81 | 1017.2 | |
| 20260906011516 | 72 | 0.0 | 0.0 | 0.00 | 0.00 | 0.00 | 79 | 1017.0 | |
| 20260906010528 | 73 | 0.0 | 0.0 | 0.00 | 0.00 | 0.00 | 76 | 1016.8 | |
| 20260906005531 | 75 | 0.0 | 0.0 | 0.00 | 0.00 | 0.00 | 75 | 1016.6 | |
| 20260906004536 | 76 | 0.0 | 0.0 | 0.00 | 0.00 | 0.00 | 72 | 1016.4 | |
| 20260906003521 | 77 | 0.0 | 0.0 | 0.00 | 0.00 | 0.00 | 70 | 1016.3 | |
| 20260906002525 | 78 | 0.0 | 0.0 | 0.00 | 0.00 | 0.00 | 70 | 1016.3 | |
| 20260906001529 | 77 | 0.0 | 0.0 | 0.00 | 0.00 | 0.00 | 70 | 1016.3 | |
| 20260906000532 | 78 | 0.0 | 0.0 | 0.00 | 0.00 | 0.00 | 70 | 1016.3 | |
| 20260905235518 | 79 | 0.0 | 0.0 | 0.00 | 0.00 | 0.00 | 67 | 1016.1 | |
| 20260905234522 | 80 | 0.0 | 0.0 | 0.00 | 0.00 | 0.00 | 65 | 1016.1 | |
| 20260905233527 | 83 | 0.0 | 0.0 | 0.00 | 0.00 | 0.00 | 61 | 1016.0 | |
| 20260905232531 | 85 | 0.0 | 0.0 | 0.00 | 0.00 | 0.00 | 59 | 1015.9 | |
| 20260905231516 | 87 | 0.0 | 0.0 | 0.00 | 0.00 | 0.00 | 58 | 1015.9 | |
| 20260905230520 | 88 | 0.0 | 0.0 | 0.00 | 0.00 | 0.00 | 57 | 1015.9 | |
| 20260905225524 | 83 | 129 | 0.9 | 1.7 | 0.00 | 0.00 | 0.00 | 61 | 1015.8 |
| 20260905224548 | 81 | 133 | 1.7 | 2.6 | 0.00 | 0.00 | 0.00 | 62 | 1015.7 |
| 20260905223532 | 81 | 130 | 1.7 | 3.5 | 0.00 | 0.00 | 0.00 | 62 | 1015.7 |
| 20260905222538 | 81 | 141 | 1.7 | 2.6 | 0.00 | 0.00 | 0.00 | 63 | 1015.9 |
| 20260905221521 | 80 | 156 | 2.6 | 3.5 | 0.00 | 0.00 | 0.00 | 62 | 1016.0 |
| 20260905220527 | 80 | 139 | 2.6 | 2.6 | 0.00 | 0.00 | 0.00 | 63 | 1016.1 |
| 20260905215529 | 82 | 134 | 3.5 | 5.2 | 0.00 | 0.00 | 0.00 | 62 | 1016.1 |
| 20260905214536 | 82 | 165 | 2.6 | 5.2 | 0.00 | 0.00 | 0.00 | 61 | 1016.1 |
| 20260905213520 | 81 | 123 | 2.6 | 3.5 | 0.00 | 0.00 | 0.00 | 63 | 1016.4 |
| 20260905212524 | 79 | 163 | 1.7 | 2.6 | 0.00 | 0.00 | 0.00 | 66 | 1016.5 |
| 20260905211527 | 78 | 172 | 2.6 | 4.3 | 0.00 | 0.00 | 0.00 | 67 | 1016.5 |
| 20260905210525 | 78 | 136 | 1.7 | 3.5 | 0.00 | 0.00 | 0.00 | 67 | 1016.3 |
| 20260905205537 | 77 | 146 | 2.6 | 3.5 | 0.00 | 0.00 | 0.00 | 68 | 1016.3 |